Berkeley, Illinois
Current Conditions -  °F | °C
As of 2:51 PM on Thursday 27 Nov 2014 (Local Time) from KORD Reporting Station
Broken Clouds Broken Clouds  
Wind Chill: 11°   Ceiling: 3200
Heat Index: 23°   Visibility: 10mi
Dew Point: 14°   Wind: 13mph
Humidity: 68%   Direction: 330°NNW
Pressure: 30.35"   Gusts: NA
Location:  41.88°N, 87.91°W
Report Text: KORD 272051Z 33011KT 10SM SCT024 BKN032 M05/M10 A3035 RMK AO2 SLP288 T10501100 51004
Loading
Personal Weather Stations






























Interactive Weather Map New forecast layout! Learn more

10-Day Weather Forecast

Advertisements
Track Severe Weather on mobile